Time;durP1;ratioP1;P1;durP2;ratioP2;P2;SDS_P1;SDS_P2;PMS_P1;PMS_P2;Temp;Humidity;BMP_temperature;BMP_pressure;BME280_temperature;BME280_humidity;BME280_pressure;Samples;Min_cycle;Max_cycle;Signal;HPM_P1;HPM_P2
2020/12/08 00:00:18;;;;;;;;;17.30;14.10;;;;;-3.11;64.28;101879.22;442454;122;379428;-76
2020/12/08 00:01:22;;;;;;;;;20.40;13.80;;;;;-3.14;64.53;101876.63;445906;122;379881;-77
2020/12/08 00:02:26;;;;;;;;;16.80;15.80;;;;;-3.18;65.08;101875.75;447684;122;380194;-76
2020/12/08 00:03:30;;;;;;;;;15.90;13.60;;;;;-3.11;65.09;101876.63;447713;122;378799;-75
2020/12/08 00:04:34;;;;;;;;;12.40;10.30;;;;;-3.11;65.09;101876.63;452242;120;376569;-76
2020/12/08 00:05:38;;;;;;;;;18.70;14.80;;;;;-3.04;65.18;101854.95;437786;124;378412;-76
2020/12/08 00:06:43;;;;;;;;;18.60;14.30;;;;;-3.04;65.18;101854.95;439843;124;382202;-76
2020/12/08 00:07:47;;;;;;;;;15.80;13.30;;;;;-3.05;65.61;101861.88;432968;126;377346;-77
2020/12/08 00:08:50;;;;;;;;;13.90;10.60;;;;;-3.11;65.67;101859.28;439859;124;377916;-77
2020/12/08 00:09:54;;;;;;;;;14.00;14.00;;;;;-3.12;65.22;101859.27;434514;124;378679;-78
2020/12/08 00:10:58;;;;;;;;;17.50;15.50;;;;;-3.09;64.76;101857.53;433191;124;379501;-77
2020/12/08 00:12:02;;;;;;;;;17.20;16.30;;;;;-3.16;64.83;101852.34;449893;120;378986;-76
2020/12/08 00:13:05;;;;;;;;;19.00;15.30;;;;;-3.17;64.57;101854.08;447474;122;381255;-77
2020/12/08 00:14:09;;;;;;;;;14.40;12.90;;;;;-3.27;65.45;101850.60;449795;120;378173;-77
2020/12/08 00:15:13;;;;;;;;;15.50;15.10;;;;;-3.22;65.45;101851.45;446989;122;379533;-76
2020/12/08 00:16:19;;;;;;;;;15.70;12.80;;;;;-3.19;65.40;101850.59;444606;122;376667;-77
2020/12/08 00:17:22;;;;;;;;;21.40;16.30;;;;;-3.19;65.40;101850.59;447176;122;380346;-79
2020/12/08 00:18:26;;;;;;;;;26.40;16.00;;;;;-3.14;65.05;101845.40;447354;122;380293;-78
2020/12/08 00:19:30;;;;;;;;;21.70;16.30;;;;;-3.13;64.78;101855.82;447198;122;380182;-75
2020/12/08 00:20:35;;;;;;;;;15.80;14.50;;;;;-3.16;64.72;101849.75;449922;120;378143;-76
2020/12/08 00:21:39;;;;;;;;;18.00;14.20;;;;;-3.16;64.72;101849.75;447989;120;378381;-77
2020/12/08 00:22:42;;;;;;;;;18.80;17.80;;;;;-3.16;64.87;101854.95;446669;122;380687;-77
2020/12/08 00:23:46;;;;;;;;;25.70;16.60;;;;;-3.15;64.72;101849.73;446952;122;381047;-77
2020/12/08 00:24:50;;;;;;;;;22.20;16.80;;;;;-3.13;65.00;101852.34;449908;120;381410;-76
2020/12/08 00:25:54;;;;;;;;;16.10;7.40;;;;;-3.15;65.32;101856.66;447067;122;377158;-76
2020/12/08 00:26:58;;;;;;;;;14.60;14.60;;;;;-3.14;65.10;101845.40;449282;119;377342;-77
2020/12/08 00:28:02;;;;;;;;;20.90;17.30;;;;;-3.13;64.88;101836.73;448544;122;381928;-77
2020/12/08 00:29:06;;;;;;;;;20.30;16.70;;;;;-3.11;65.00;101837.59;444740;122;380669;-76
2020/12/08 00:30:11;;;;;;;;;21.00;15.50;;;;;-3.11;65.00;101837.59;449085;120;381697;-77
2020/12/08 00:31:15;;;;;;;;;23.20;17.70;;;;;-3.14;64.92;101837.59;439970;122;381604;-75
2020/12/08 00:32:19;;;;;;;;;17.50;14.30;;;;;-3.12;64.86;101856.66;448698;120;379367;-76
2020/12/08 00:33:23;;;;;;;;;19.20;15.20;;;;;-3.13;64.71;101839.34;449638;120;379599;-76
2020/12/08 00:34:27;;;;;;;;;18.10;16.10;;;;;-3.16;64.99;101841.94;447175;122;379939;-76
2020/12/08 00:35:31;;;;;;;;;19.00;15.80;;;;;-3.16;64.78;101836.73;447700;122;378890;-76
2020/12/08 00:36:36;;;;;;;;;19.00;17.20;;;;;-3.14;65.30;101837.59;449398;120;380207;-75
2020/12/08 00:37:43;;;;;;;;;16.90;14.30;;;;;-3.15;65.05;101833.24;446813;122;380273;-76
2020/12/08 00:38:47;;;;;;;;;21.30;16.90;;;;;-3.15;65.05;101833.24;447792;122;385798;-76
2020/12/08 00:39:51;;;;;;;;;18.90;17.20;;;;;-3.10;65.33;101834.13;440098;124;382194;-77
2020/12/08 00:40:55;;;;;;;;;19.20;14.60;;;;;-3.10;65.33;101834.13;432860;126;379287;-77
2020/12/08 00:41:59;;;;;;;;;21.20;18.20;;;;;-3.09;65.24;101831.52;435134;125;380638;-77
2020/12/08 00:43:03;;;;;;;;;22.00;18.90;;;;;-3.12;65.03;101835.84;435790;125;382026;-77
2020/12/08 00:44:08;;;;;;;;;22.80;17.30;;;;;-3.12;65.03;101835.84;435541;125;381011;-77
2020/12/08 00:45:12;;;;;;;;;19.00;15.70;;;;;-3.11;64.88;101832.38;436100;125;379544;-77
2020/12/08 00:46:16;;;;;;;;;20.90;18.60;;;;;-3.08;65.18;101822.84;436189;125;382444;-76
2020/12/08 00:47:20;;;;;;;;;23.30;18.20;;;;;-3.19;65.00;101797.71;435210;125;380990;-76
2020/12/08 00:48:24;;;;;;;;;18.30;14.60;;;;;-2.97;64.92;101834.13;436257;125;380934;-78
2020/12/08 00:49:28;;;;;;;;;13.70;12.90;;;;;-3.00;65.12;101817.65;441464;122;376638;-77
2020/12/08 00:50:34;;;;;;;;;20.90;17.40;;;;;-3.00;65.12;101817.65;442828;122;379986;-78
2020/12/08 00:51:37;;;;;;;;;18.80;14.30;;;;;-2.96;64.95;101824.56;433233;124;380615;-78
2020/12/08 00:52:41;;;;;;;;;17.50;13.50;;;;;-2.94;64.85;101830.66;436388;125;379541;-76
2020/12/08 00:53:47;;;;;;;;;24.50;17.40;;;;;-2.97;64.96;101823.72;435467;125;383409;-77
2020/12/08 00:54:51;;;;;;;;;15.70;13.80;;;;;-2.93;64.84;101819.35;436022;125;379023;-76
2020/12/08 00:55:55;;;;;;;;;15.60;13.20;;;;;-2.95;65.01;101824.58;436004;125;379495;-77
2020/12/08 00:56:59;;;;;;;;;19.90;17.00;;;;;-2.96;64.98;101821.95;435109;125;383179;-78
2020/12/08 00:58:03;;;;;;;;;21.70;19.10;;;;;-2.94;65.85;101828.92;436235;125;381029;-77
2020/12/08 00:59:13;;;;;;;;;18.70;18.30;;;;;-2.95;65.71;101836.72;436232;125;381628;-77
2020/12/08 01:00:13;;;;;;;;;22.90;16.60;;;;;-2.95;65.71;101836.72;435789;125;383590;-77
2020/12/08 01:01:19;;;;;;;;;17.00;14.40;;;;;-2.99;64.93;101832.38;439769;124;377784;-77
2020/12/08 01:02:23;;;;;;;;;18.10;15.40;;;;;-2.95;64.90;101831.52;432847;126;379358;-78
2020/12/08 01:03:27;;;;;;;;;19.40;16.60;;;;;-3.00;64.72;101841.91;436048;125;381526;-77
2020/12/08 01:04:31;;;;;;;;;19.60;17.50;;;;;-2.97;64.70;101834.13;436359;125;380287;-78
2020/12/08 01:05:35;;;;;;;;;15.40;14.50;;;;;-2.96;65.46;101828.04;435966;125;378644;-77
2020/12/08 01:06:41;;;;;;;;;21.80;16.50;;;;;-2.95;65.89;101834.98;434771;125;380982;-76
2020/12/08 01:07:45;;;;;;;;;19.70;14.20;;;;;-2.93;64.95;101825.43;436268;125;379568;-76
2020/12/08 01:08:51;;;;;;;;;22.40;16.90;;;;;-2.93;64.95;101825.43;435587;125;382295;-76
2020/12/08 01:09:55;;;;;;;;;16.20;12.50;;;;;-2.95;64.85;101828.91;445409;122;379572;-77
2020/12/08 01:10:59;;;;;;;;;15.50;14.60;;;;;-3.03;64.85;101821.09;445868;122;378691;-77
2020/12/08 01:12:03;;;;;;;;;10.00;10.00;;;;;-3.00;64.91;101809.84;440817;122;377212;-78
2020/12/08 01:13:08;;;;;;;;;18.20;14.40;;;;;-3.00;64.91;101809.84;439869;124;380123;-78
2020/12/08 01:14:12;;;;;;;;;23.30;18.20;;;;;-3.00;64.88;101815.89;452600;120;380816;-77
2020/12/08 01:15:16;;;;;;;;;19.80;16.70;;;;;-3.07;65.39;101802.91;450420;120;380202;-77
2020/12/08 01:16:24;;;;;;;;;19.00;14.60;;;;;-3.04;65.31;101808.97;440253;124;378137;-78
2020/12/08 01:17:32;;;;;;;;;17.50;15.10;;;;;-3.01;65.35;101810.70;444692;121;378968;-79
2020/12/08 01:18:35;;;;;;;;;17.70;15.40;;;;;-3.00;65.52;101821.09;439527;124;380564;-78
2020/12/08 01:19:39;;;;;;;;;25.20;21.50;;;;;-3.00;65.52;101821.09;440745;122;382954;-79
2020/12/08 01:20:47;;;;;;;;;20.90;12.90;;;;;-3.05;65.52;101820.24;447462;122;380198;-78
2020/12/08 01:21:52;;;;;;;;;23.10;18.10;;;;;-2.98;65.20;101821.11;450024;120;381737;-79
2020/12/08 01:22:57;;;;;;;;;22.10;17.90;;;;;-2.94;65.05;101818.52;449913;120;380881;-77
2020/12/08 01:24:01;;;;;;;;;16.40;13.10;;;;;-2.88;65.49;101820.23;448375;120;378384;-79
2020/12/08 01:25:05;;;;;;;;;21.30;17.00;;;;;-2.93;65.64;101821.95;447682;122;382681;-76
2020/12/08 01:26:11;;;;;;;;;22.90;18.40;;;;;-2.93;65.64;101821.95;450029;120;383964;-79
2020/12/08 01:27:15;;;;;;;;;21.50;18.90;;;;;-2.92;66.28;101808.95;447550;122;380967;-77
2020/12/08 01:28:20;;;;;;;;;25.60;19.00;;;;;-2.92;66.22;101808.95;448049;120;383444;-79
2020/12/08 01:29:25;;;;;;;;;25.60;22.60;;;;;-2.88;65.73;101799.41;449932;120;380712;-77
2020/12/08 01:30:31;;;;;;;;;24.70;15.80;;;;;-2.88;65.73;101799.41;450085;120;380115;-77
2020/12/08 01:31:35;;;;;;;;;15.60;13.90;;;;;-2.84;65.10;101809.80;447684;122;379180;-76
2020/12/08 01:32:41;;;;;;;;;17.90;17.20;;;;;-2.80;65.82;101808.06;447848;120;382617;-77
2020/12/08 01:33:45;;;;;;;;;21.80;18.30;;;;;-2.83;65.50;101802.86;447689;122;380881;-77
2020/12/08 01:34:49;;;;;;;;;13.10;12.60;;;;;-2.83;65.50;101802.86;447040;122;376430;-78
2020/12/08 01:35:53;;;;;;;;;14.50;12.50;;;;;-2.87;65.43;101804.59;447061;122;380283;-78
2020/12/08 01:36:57;;;;;;;;;22.00;19.80;;;;;-2.84;65.48;101798.55;447396;120;382783;-78
2020/12/08 01:38:01;;;;;;;;;18.00;17.10;;;;;-2.87;65.16;101806.36;447026;122;381336;-78
2020/12/08 01:39:05;;;;;;;;;12.70;12.70;;;;;-2.82;65.29;101802.00;446673;122;377866;-78
2020/12/08 01:40:10;;;;;;;;;19.10;14.60;;;;;-2.80;64.71;101800.25;448259;122;379693;-77
2020/12/08 01:41:14;;;;;;;;;16.70;13.70;;;;;-2.83;64.59;101798.52;440036;124;378295;-78
2020/12/08 01:42:18;;;;;;;;;25.40;20.70;;;;;-2.82;64.17;101791.59;442879;121;381406;-78
2020/12/08 01:43:22;;;;;;;;;15.20;13.50;;;;;-2.89;64.16;101785.52;446605;121;378551;-78
2020/12/08 01:44:26;;;;;;;;;17.30;13.70;;;;;-2.89;64.16;101785.52;447384;122;377400;-77
2020/12/08 01:45:30;;;;;;;;;19.80;18.20;;;;;-2.88;64.64;101791.60;447543;122;381470;-77
2020/12/08 01:46:34;;;;;;;;;20.90;16.40;;;;;-2.88;64.64;101791.60;450192;120;380636;-77
2020/12/08 01:47:38;;;;;;;;;20.00;14.80;;;;;-2.81;64.47;101782.92;447687;120;380878;-78
2020/12/08 01:48:43;;;;;;;;;20.90;16.60;;;;;-2.82;64.76;101782.05;441927;122;379432;-77
2020/12/08 01:49:46;;;;;;;;;26.40;22.40;;;;;-2.87;65.02;101785.53;439501;124;383346;-76
2020/12/08 01:50:51;;;;;;;;;22.90;17.60;;;;;-2.87;65.02;101785.53;439823;124;384367;-77
2020/12/08 01:51:55;;;;;;;;;20.40;19.10;;;;;-2.86;64.98;101782.91;446629;121;381018;-77
2020/12/08 01:52:59;;;;;;;;;19.10;16.70;;;;;-2.85;64.73;101779.45;439868;124;381337;-77
2020/12/08 01:54:03;;;;;;;;;20.30;15.50;;;;;-2.84;64.72;101790.73;447659;122;379872;-77
2020/12/08 01:55:09;;;;;;;;;13.70;11.00;;;;;-2.84;64.72;101790.73;449395;120;377634;-77
2020/12/08 01:56:15;;;;;;;;;22.80;20.30;;;;;-2.82;64.42;101782.05;449875;120;383088;-79
2020/12/08 01:57:20;;;;;;;;;21.40;19.70;;;;;-2.82;64.42;101782.05;447271;122;382351;-77
2020/12/08 01:58:24;;;;;;;;;22.90;18.30;;;;;-2.80;64.41;101797.64;447587;122;382997;-78
2020/12/08 01:59:29;;;;;;;;;21.50;20.00;;;;;-2.80;64.41;101797.64;450021;120;383237;-78
2020/12/08 02:00:35;;;;;;;;;24.30;17.00;;;;;-2.83;63.98;101782.03;446673;122;380681;-78
2020/12/08 02:01:39;;;;;;;;;24.40;18.10;;;;;-2.83;63.98;101782.03;445073;122;382530;-78
2020/12/08 02:02:43;;;;;;;;;19.10;17.50;;;;;-2.83;64.70;101792.44;447353;120;382360;-76
2020/12/08 02:03:49;;;;;;;;;21.80;18.60;;;;;-2.81;64.10;101783.75;447718;122;382795;-76
2020/12/08 02:04:53;;;;;;;;;24.60;22.30;;;;;-2.81;64.10;101783.75;446906;122;384969;-77
2020/12/08 02:05:57;;;;;;;;;23.00;15.90;;;;;-2.85;64.22;101779.45;446986;122;380885;-78
2020/12/08 02:07:01;;;;;;;;;20.80;15.90;;;;;-2.85;64.22;101779.45;449425;119;381073;-78
2020/12/08 02:08:04;;;;;;;;;18.90;11.60;;;;;-2.84;63.19;101777.72;449065;119;381584;-77
2020/12/08 02:09:10;;;;;;;;;19.60;14.40;;;;;-2.84;63.19;101777.72;445316;122;379877;-77
2020/12/08 02:10:14;;;;;;;;;18.40;13.60;;;;;-2.90;63.44;101785.51;435074;123;379676;-78
2020/12/08 02:11:18;;;;;;;;;15.90;10.70;;;;;-2.89;63.71;101784.65;435222;123;379152;-76
2020/12/08 02:12:22;;;;;;;;;18.70;16.50;;;;;-2.87;63.36;101775.13;437435;123;383003;-76
2020/12/08 02:13:26;;;;;;;;;20.90;16.50;;;;;-2.99;63.47;101782.92;437359;123;380466;-76
2020/12/08 02:14:31;;;;;;;;;23.40;17.20;;;;;-3.04;63.33;101782.08;444165;122;380974;-75
2020/12/08 02:15:35;;;;;;;;;18.00;13.80;;;;;-3.03;63.93;101783.83;434813;124;380393;-75
2020/12/08 02:16:39;;;;;;;;;16.30;12.40;;;;;-3.08;63.83;101786.41;438414;124;378899;-75
2020/12/08 02:17:43;;;;;;;;;14.60;13.40;;;;;-3.09;63.75;101778.59;447209;122;378204;-75
2020/12/08 02:18:47;;;;;;;;;28.20;18.10;;;;;-3.02;63.90;101790.73;451557;120;383921;-75
2020/12/08 02:19:52;;;;;;;;;20.80;17.50;;;;;-3.02;63.39;101782.93;448538;120;382734;-76
2020/12/08 02:20:57;;;;;;;;;18.50;11.00;;;;;-3.02;63.39;101782.93;442916;121;379666;-76
2020/12/08 02:22:01;;;;;;;;;18.20;16.80;;;;;-3.06;63.71;101773.42;442763;121;380373;-75
2020/12/08 02:23:05;;;;;;;;;20.10;16.90;;;;;-3.06;63.72;101783.83;447685;122;379148;-76
2020/12/08 02:24:10;;;;;;;;;21.40;17.20;;;;;-3.08;63.17;101790.75;450063;120;380778;-77
2020/12/08 02:25:15;;;;;;;;;18.70;17.70;;;;;-3.05;62.91;101789.02;450161;120;381061;-79
2020/12/08 02:26:20;;;;;;;;;19.90;15.00;;;;;-3.11;63.62;101775.14;442293;121;381758;-79
2020/12/08 02:27:24;;;;;;;;;18.30;15.20;;;;;-3.16;63.56;101775.16;444327;121;380300;-78
2020/12/08 02:28:28;;;;;;;;;22.40;18.60;;;;;-3.21;63.18;101769.95;440178;122;383170;-78
2020/12/08 02:29:32;;;;;;;;;15.70;11.40;;;;;-3.38;63.38;101750.88;440087;124;377810;-78
2020/12/08 02:30:37;;;;;;;;;19.60;17.30;;;;;-3.25;63.76;101768.21;450183;120;380529;-79
2020/12/08 02:31:41;;;;;;;;;19.80;15.40;;;;;-3.25;63.76;101768.21;445272;122;382122;-78
2020/12/08 02:32:45;;;;;;;;;17.40;16.60;;;;;-3.25;64.03;101777.74;448534;122;382573;-78
2020/12/08 02:33:49;;;;;;;;;23.00;18.10;;;;;-3.26;63.95;101771.70;439976;124;383932;-79
2020/12/08 02:34:53;;;;;;;;;18.50;14.90;;;;;-3.31;64.28;101763.02;450143;120;381457;-77
2020/12/08 02:35:57;;;;;;;;;21.70;17.40;;;;;-3.31;64.28;101763.02;449865;120;382426;-77
2020/12/08 02:37:01;;;;;;;;;17.00;15.30;;;;;-3.29;63.87;101786.44;448270;120;379932;-79
2020/12/08 02:38:07;;;;;;;;;19.40;15.20;;;;;-3.29;63.87;101786.44;450362;120;380382;-78
2020/12/08 02:39:11;;;;;;;;;23.00;17.50;;;;;-3.23;63.98;101770.83;450348;120;382820;-78
2020/12/08 02:40:16;;;;;;;;;14.50;11.10;;;;;-3.28;63.64;101778.62;449831;120;376825;-79
2020/12/08 02:41:24;;;;;;;;;18.90;16.00;;;;;-3.28;63.72;101775.14;438431;124;380643;-77
2020/12/08 02:42:28;;;;;;;;;15.30;14.20;;;;;-3.24;63.81;101780.36;441102;122;377763;-78
2020/12/08 02:43:31;;;;;;;;;21.90;17.10;;;;;-3.22;64.03;101778.61;450455;120;381218;-79
2020/12/08 02:44:35;;;;;;;;;6.80;3.10;;;;;-3.29;64.07;101763.03;452349;120;375761;-78
2020/12/08 02:45:40;;;;;;;;;25.00;16.90;;;;;-3.24;64.01;101776.89;443537;122;380224;-78
2020/12/08 02:46:49;;;;;;;;;20.00;17.30;;;;;-3.27;64.02;101769.95;447290;122;380562;-79
2020/12/08 02:47:53;;;;;;;;;21.60;17.80;;;;;-3.27;64.02;101769.95;447337;122;382308;-79
2020/12/08 02:48:57;;;;;;;;;22.00;18.30;;;;;-3.26;64.16;101770.83;443401;121;381282;-78
2020/12/08 02:50:03;;;;;;;;;16.80;14.50;;;;;-3.26;64.14;101769.10;435224;124;381774;-77
2020/12/08 02:51:08;;;;;;;;;22.80;16.80;;;;;-3.25;64.01;101778.61;432592;126;382368;-79
2020/12/08 02:52:12;;;;;;;;;21.50;18.20;;;;;-3.19;63.66;101769.93;435099;124;383201;-78
2020/12/08 02:53:18;;;;;;;;;20.90;17.10;;;;;-3.18;63.77;101778.61;439023;123;381766;-79
2020/12/08 02:54:22;;;;;;;;;44.20;34.00;;;;;-3.18;63.77;101778.61;435775;125;385582;-79
2020/12/08 02:55:26;;;;;;;;;24.60;19.80;;;;;-3.28;64.63;101769.94;433887;125;382587;-78
2020/12/08 02:56:30;;;;;;;;;14.10;11.20;;;;;-3.38;64.60;101774.28;446807;120;378852;-77
2020/12/08 02:57:36;;;;;;;;;21.30;16.40;;;;;-3.37;64.25;101776.02;439813;123;381573;-80
2020/12/08 02:58:40;;;;;;;;;19.80;17.50;;;;;-3.37;64.25;101776.02;450947;121;379853;-78
2020/12/08 02:59:44;;;;;;;;;15.20;14.00;;;;;-3.37;64.86;101778.63;453397;119;377613;-78
2020/12/08 03:00:52;;;;;;;;;20.20;16.40;;;;;-3.37;64.86;101778.63;445573;121;380575;-77
2020/12/08 03:01:57;;;;;;;;;26.10;18.50;;;;;-3.33;64.41;101772.56;445531;121;382546;-76
2020/12/08 03:03:02;;;;;;;;;20.10;15.50;;;;;-3.33;64.41;101772.56;448645;121;379917;-77
2020/12/08 03:04:06;;;;;;;;;19.30;17.20;;;;;-3.32;64.09;101778.64;452910;119;379665;-78
2020/12/08 03:05:10;;;;;;;;;18.60;17.20;;;;;-3.30;63.85;101784.70;444443;121;382981;-76
2020/12/08 03:06:16;;;;;;;;;18.90;14.20;;;;;-3.37;63.79;101775.16;445140;121;378806;-77
2020/12/08 03:07:20;;;;;;;;;18.60;15.90;;;;;-3.37;63.79;101775.16;453126;119;379282;-76
2020/12/08 03:08:24;;;;;;;;;20.90;15.10;;;;;-3.38;63.75;101774.28;450506;121;380892;-75
2020/12/08 03:09:28;;;;;;;;;15.60;13.10;;;;;-3.35;63.87;101797.69;445357;121;377785;-78
2020/12/08 03:10:32;;;;;;;;;16.30;14.40;;;;;-3.35;63.87;101797.69;452866;119;379689;-78
2020/12/08 03:11:36;;;;;;;;;16.10;14.60;;;;;-3.36;64.08;101795.98;453115;119;382105;-77
2020/12/08 03:12:46;;;;;;;;;23.00;17.40;;;;;-3.28;64.08;101804.62;450769;119;380703;-76
2020/12/08 03:13:49;;;;;;;;;20.20;14.10;;;;;-3.29;64.10;101792.48;454947;119;380148;-77
2020/12/08 03:14:53;;;;;;;;;17.10;17.10;;;;;-3.26;64.05;101797.72;446014;121;378699;-76
2020/12/08 03:15:59;;;;;;;;;26.70;21.50;;;;;-3.21;64.02;101801.17;434512;125;380983;-77
2020/12/08 03:17:04;;;;;;;;;22.80;16.70;;;;;-3.23;63.69;101792.52;429857;125;380543;-76
2020/12/08 03:18:09;;;;;;;;;18.80;16.30;;;;;-3.25;63.19;101796.83;431789;127;379349;-76
2020/12/08 03:19:12;;;;;;;;;18.00;15.50;;;;;-3.30;63.62;101785.56;436268;125;377628;-76
2020/12/08 03:20:17;;;;;;;;;19.90;18.70;;;;;-3.29;63.89;101789.87;434158;125;381076;-78
2020/12/08 03:21:23;;;;;;;;;17.20;15.80;;;;;-3.35;63.22;101799.45;433666;126;379937;-79
2020/12/08 03:22:27;;;;;;;;;13.20;13.20;;;;;-3.33;63.41;101798.58;436147;125;377852;-77
2020/12/08 03:23:32;;;;;;;;;18.20;15.30;;;;;-3.34;63.59;101794.23;436042;125;379136;-78
2020/12/08 03:24:36;;;;;;;;;13.10;10.50;;;;;-3.34;63.59;101794.23;443402;123;377858;-76
2020/12/08 03:25:41;;;;;;;;;23.60;16.90;;;;;-3.41;63.63;101789.02;451384;119;381739;-78
2020/12/08 03:26:46;;;;;;;;;18.20;16.20;;;;;-3.33;64.11;101787.30;453358;119;381922;-77
2020/12/08 03:27:49;;;;;;;;;9.90;7.10;;;;;-3.31;64.23;101789.02;437524;123;375797;-77
2020/12/08 03:28:54;;;;;;;;;21.30;19.20;;;;;-3.26;64.84;101784.70;432652;125;381835;-76
2020/12/08 03:29:58;;;;;;;;;18.10;16.60;;;;;-3.25;63.99;101783.81;442794;123;379481;-78
2020/12/08 03:31:03;;;;;;;;;14.70;11.90;;;;;-3.35;64.02;101784.68;445781;121;379407;-76
2020/12/08 03:32:08;;;;;;;;;17.60;13.40;;;;;-3.39;64.08;101780.37;437400;123;378922;-77
2020/12/08 03:33:12;;;;;;;;;20.10;18.80;;;;;-3.36;63.77;101785.57;434217;125;381665;-78
2020/12/08 03:34:16;;;;;;;;;21.10;17.20;;;;;-3.32;64.49;101773.44;442326;122;378955;-78
2020/12/08 03:35:20;;;;;;;;;21.40;15.50;;;;;-3.31;64.14;101783.83;448586;120;380072;-77
2020/12/08 03:36:26;;;;;;;;;21.20;17.30;;;;;-3.33;64.13;101788.17;445614;121;381091;-77
2020/12/08 03:37:30;;;;;;;;;15.30;11.90;;;;;-3.33;64.13;101788.17;449103;120;378506;-79
2020/12/08 03:38:36;;;;;;;;;18.40;15.80;;;;;-3.35;64.33;101779.48;442754;123;380121;-79
2020/12/08 03:39:40;;;;;;;;;22.20;17.10;;;;;-3.36;64.28;101784.70;442930;123;379703;-79
2020/12/08 03:40:45;;;;;;;;;20.30;17.90;;;;;-3.35;64.82;101776.88;450535;121;380742;-78
2020/12/08 03:41:51;;;;;;;;;21.10;14.60;;;;;-3.37;64.81;101778.63;450273;121;380804;-79
2020/12/08 03:42:55;;;;;;;;;18.40;16.70;;;;;-3.32;64.55;101781.23;450585;121;382011;-78
2020/12/08 03:43:59;;;;;;;;;23.60;17.00;;;;;-3.26;64.31;101782.11;451083;119;382913;-79
2020/12/08 03:45:03;;;;;;;;;16.70;12.60;;;;;-3.25;64.67;101781.22;450407;121;376984;-79
2020/12/08 03:46:09;;;;;;;;;17.80;13.00;;;;;-3.28;64.98;101782.95;451236;119;378473;-80
2020/12/08 03:47:13;;;;;;;;;21.60;16.90;;;;;-3.31;65.20;101776.02;454088;119;380631;-79
2020/12/08 03:48:17;;;;;;;;;20.40;19.00;;;;;-3.28;65.30;101776.02;450395;121;383393;-80
2020/12/08 03:49:26;;;;;;;;;23.00;17.20;;;;;-3.28;65.30;101776.02;450875;119;383752;-81
2020/12/08 03:50:31;;;;;;;;;18.10;15.30;;;;;-3.24;65.43;101782.96;450394;121;379000;-83
2020/12/08 03:51:36;;;;;;;;;21.20;16.60;;;;;-3.19;65.30;101780.34;449139;121;382856;-79
2020/12/08 03:52:41;;;;;;;;;22.90;18.40;;;;;-3.13;64.92;101782.09;448151;121;381635;-76
2020/12/08 03:53:45;;;;;;;;;14.60;12.20;;;;;-3.39;65.15;101754.36;447983;121;378597;-76
2020/12/08 03:54:49;;;;;;;;;22.70;18.30;;;;;-3.39;65.15;101754.36;443883;123;380632;-75
2020/12/08 03:55:53;;;;;;;;;21.80;18.30;;;;;-3.16;65.21;101782.97;443952;123;380584;-76
2020/12/08 03:56:56;;;;;;;;;22.10;17.90;;;;;-3.16;65.21;101782.97;444004;123;382867;-77
2020/12/08 03:58:01;;;;;;;;;21.40;17.20;;;;;-3.15;65.50;101781.20;442057;123;382928;-77
2020/12/08 03:59:06;;;;;;;;;29.20;20.70;;;;;-3.15;65.22;101776.88;444209;123;384105;-74
2020/12/08 04:00:11;;;;;;;;;22.50;20.10;;;;;-3.09;65.60;101778.59;444005;123;382864;-75
2020/12/08 04:01:20;;;;;;;;;17.90;15.00;;;;;-3.09;65.60;101778.59;444002;123;377328;-77
2020/12/08 04:02:24;;;;;;;;;23.20;17.30;;;;;-3.13;65.50;101769.08;444206;123;381313;-77
2020/12/08 04:03:29;;;;;;;;;21.50;17.20;;;;;-3.13;65.97;101779.48;444057;123;382018;-76
2020/12/08 04:04:33;;;;;;;;;26.60;18.00;;;;;-3.08;65.87;101775.14;443675;123;381501;-78
2020/12/08 04:05:38;;;;;;;;;22.20;19.70;;;;;-3.08;65.87;101775.14;444089;123;381943;-78
2020/12/08 04:06:42;;;;;;;;;20.00;17.60;;;;;-3.07;65.52;101776.88;442418;123;379163;-78
2020/12/08 04:07:48;;;;;;;;;11.90;10.30;;;;;-3.13;65.24;101775.16;441009;124;375775;-76
2020/12/08 04:08:52;;;;;;;;;21.40;17.00;;;;;-3.09;65.18;101773.39;440989;124;380468;-76
2020/12/08 04:10:00;;;;;;;;;27.30;19.80;;;;;-3.09;65.24;101771.66;441916;123;383327;-76
2020/12/08 04:11:04;;;;;;;;;26.70;21.20;;;;;-3.11;65.77;101767.34;444323;123;383039;-75
2020/12/08 04:12:08;;;;;;;;;20.90;19.20;;;;;-3.14;66.23;101775.14;433263;126;383948;-77
2020/12/08 04:13:13;;;;;;;;;19.00;13.20;;;;;-3.14;66.23;101775.14;444166;123;378030;-77
2020/12/08 04:14:17;;;;;;;;;22.60;16.70;;;;;-3.13;66.23;101769.08;443612;123;379324;-76
2020/12/08 04:15:22;;;;;;;;;21.90;15.90;;;;;-3.13;66.23;101769.08;435245;125;379760;-77
2020/12/08 04:16:27;;;;;;;;;20.30;15.00;;;;;-3.10;66.24;101775.16;436718;125;381167;-79
2020/12/08 04:17:31;;;;;;;;;17.40;14.80;;;;;-3.10;66.24;101775.16;430097;127;380449;-78
2020/12/08 04:18:35;;;;;;;;;18.00;14.70;;;;;-3.17;65.93;101772.55;434559;126;378269;-80
2020/12/08 04:19:39;;;;;;;;;23.60;20.70;;;;;-3.19;66.17;101766.48;438258;124;383671;-78
2020/12/08 04:20:45;;;;;;;;;25.40;18.60;;;;;-3.13;67.04;101775.16;433112;126;381148;-76
2020/12/08 04:21:49;;;;;;;;;25.80;18.80;;;;;-3.12;66.60;101773.39;443989;123;382636;-76
2020/12/08 04:23:00;;;;;;;;;19.80;17.40;;;;;-3.11;66.65;101767.34;432845;126;380752;-78
2020/12/08 04:24:05;;;;;;;;;22.50;17.20;;;;;-3.13;66.42;101767.35;444073;123;380275;-77
2020/12/08 04:25:09;;;;;;;;;20.45;15.55;;;;;-3.13;66.42;101767.35;440642;124;384226;-77
2020/12/08 04:26:14;;;;;;;;;19.80;15.00;;;;;-3.11;66.49;101772.53;440995;124;380390;-79
2020/12/08 04:27:22;;;;;;;;;23.90;18.60;;;;;-3.11;66.49;101772.53;441834;123;383586;-78
2020/12/08 04:28:28;;;;;;;;;12.00;10.00;;;;;-3.13;66.73;101767.35;444000;123;376883;-78
2020/12/08 04:29:32;;;;;;;;;27.70;20.00;;;;;-3.13;66.73;101767.35;444015;123;381159;-79
2020/12/08 04:30:37;;;;;;;;;24.50;18.60;;;;;-3.00;67.33;101774.25;433092;126;382348;-79
2020/12/08 04:31:41;;;;;;;;;24.60;20.60;;;;;-2.96;67.41;101782.92;441994;123;383672;-79
2020/12/08 04:32:45;;;;;;;;;17.80;16.30;;;;;-2.96;67.41;101782.92;433286;126;380043;-79
2020/12/08 04:33:49;;;;;;;;;20.00;19.70;;;;;-2.99;66.82;101770.78;433255;126;382979;-80
2020/12/08 04:34:53;;;;;;;;;17.40;17.00;;;;;-2.97;66.94;101779.48;444336;123;382902;-80
2020/12/08 04:35:57;;;;;;;;;19.60;17.20;;;;;-2.92;66.95;101779.45;430319;127;380594;-78
2020/12/08 04:37:01;;;;;;;;;22.50;16.70;;;;;-2.89;67.00;101769.03;437445;125;381333;-78
2020/12/08 04:38:05;;;;;;;;;16.70;15.10;;;;;-2.89;67.00;101769.03;437910;125;379656;-80
2020/12/08 04:39:08;;;;;;;;;13.70;12.70;;;;;-2.93;66.30;101772.50;444388;123;377508;-78
2020/12/08 04:40:12;;;;;;;;;26.70;20.10;;;;;-2.93;66.30;101772.50;443721;123;380800;-78
2020/12/08 04:41:20;;;;;;;;;20.10;16.70;;;;;-2.95;66.17;101775.13;444370;123;382245;-78
2020/12/08 04:42:24;;;;;;;;;19.40;16.60;;;;;-2.91;66.36;101768.18;430560;127;380938;-78
2020/12/08 04:43:28;;;;;;;;;22.50;19.00;;;;;-2.94;66.74;101774.27;430666;127;381753;-78
2020/12/08 04:44:32;;;;;;;;;14.60;13.60;;;;;-2.94;66.74;101774.27;436296;125;377975;-77
2020/12/08 04:45:35;;;;;;;;;4.90;4.90;;;;;-2.92;66.69;101777.72;437559;125;373407;-79
2020/12/08 04:46:41;;;;;;;;;11.40;9.20;;;;;-3.00;67.32;101781.22;428042;127;377793;-77
2020/12/08 04:47:45;;;;;;;;;22.00;15.20;;;;;-3.05;67.51;101772.53;430385;127;379779;-79
2020/12/08 04:48:49;;;;;;;;;23.50;19.40;;;;;-3.09;67.26;101768.19;443959;123;381355;-78
2020/12/08 04:49:54;;;;;;;;;25.20;15.70;;;;;-3.00;67.58;101778.61;444277;123;382465;-80